createdAt,value
2023-03-05T10:40:08.122Z,100666.47
2023-03-05T10:42:55.188Z,100666.47
2023-03-05T10:45:25.950Z,100655.91
2023-03-05T10:47:59.262Z,100655.91
2023-03-05T10:50:31.543Z,100653.28
2023-03-05T10:53:09.840Z,100652.44
2023-03-05T10:55:36.432Z,100649.84
2023-03-05T10:58:11.501Z,100660.38
2023-03-05T11:00:37.814Z,100656.00
2023-03-05T11:03:05.679Z,100663.84
2023-03-05T11:05:38.167Z,100665.59
2023-03-05T11:08:26.611Z,100676.03
2023-03-05T11:11:13.145Z,100672.53
2023-03-05T11:13:55.909Z,100670.78
2023-03-05T11:16:34.681Z,100662.03
2023-03-05T11:19:33.506Z,100667.28
2023-03-05T11:22:20.173Z,100660.31
2023-03-05T11:25:16.059Z,100652.47
2023-03-05T11:27:56.275Z,100651.59
2023-03-05T11:30:28.882Z,100649.84
2023-03-05T11:33:20.505Z,100648.09
2023-03-05T11:35:48.531Z,100647.22
2023-03-05T11:38:23.952Z,100631.50
2023-03-05T11:40:52.097Z,100630.56
2023-03-05T11:43:23.438Z,100629.44
2023-03-05T11:45:53.545Z,100623.88
2023-03-05T11:48:26.280Z,100621.06
2023-03-05T11:51:00.057Z,100614.25
2023-03-05T11:53:33.301Z,100608.34
2023-03-05T11:56:04.503Z,100608.41
2023-03-05T11:58:40.859Z,100599.56
2023-03-05T12:01:16.297Z,100597.00
2023-03-05T12:03:44.368Z,100597.03
2023-03-05T12:06:28.644Z,100595.34
2023-03-05T12:08:57.849Z,100576.19
2023-03-05T12:11:28.517Z,100572.69
2023-03-05T12:14:36.695Z,100583.22
2023-03-05T12:17:11.858Z,100570.94
2023-03-05T12:20:01.033Z,100566.59
2023-03-05T12:22:36.195Z,100568.28
2023-03-05T12:25:45.320Z,100571.81
2023-03-05T12:28:35.886Z,100558.72
2023-03-05T12:31:02.226Z,100561.38
2023-03-05T12:33:42.661Z,100569.28
2023-03-05T12:36:21.343Z,100543.00
2023-03-05T12:38:57.403Z,100545.63
2023-03-05T12:41:24.526Z,100547.34
2023-03-05T12:44:06.582Z,100549.03
2023-03-05T12:46:36.056Z,100534.09
2023-03-05T12:49:17.719Z,100548.03
2023-03-05T12:51:46.434Z,100547.97
2023-03-05T12:54:27.861Z,100547.94
2023-03-05T12:56:57.166Z,100543.47
2023-03-05T12:59:28.753Z,100538.19
2023-03-05T13:01:59.575Z,100534.84
2023-03-05T13:04:31.645Z,100537.47
2023-03-05T13:07:13.354Z,100542.75
2023-03-05T13:09:39.660Z,100540.22
2023-03-05T13:12:13.275Z,100542.00
2023-03-05T13:14:41.773Z,100542.84
2023-03-05T13:17:55.257Z,100542.91
2023-03-05T13:20:26.710Z,100534.13
2023-03-05T13:23:05.854Z,100536.78
2023-03-05T13:25:32.143Z,100533.41
2023-03-05T13:28:16.542Z,100537.84
2023-03-05T13:30:52.907Z,100540.53
2023-03-05T13:33:26.132Z,100547.53
2023-03-05T13:35:54.087Z,100536.19
2023-03-05T13:38:24.489Z,100538.81
2023-03-05T13:41:08.946Z,100541.44
2023-03-05T13:43:43.515Z,100533.56
2023-03-05T13:46:10.239Z,100541.41
2023-03-05T13:48:36.585Z,100541.44
2023-03-05T13:51:02.943Z,100537.91
2023-03-05T13:53:33.483Z,100543.16
2023-03-05T13:56:06.327Z,100542.28
2023-03-05T13:58:54.722Z,100538.81
2023-03-05T14:01:34.310Z,100533.53
2023-03-05T14:04:17.876Z,100539.63
2023-03-05T14:07:01.096Z,100530.78
2023-03-05T14:09:31.908Z,100523.78
2023-03-05T14:12:07.135Z,100524.63
2023-03-05T14:14:38.500Z,100518.56
2023-03-05T14:17:32.864Z,100514.16
2023-03-05T14:20:11.489Z,100510.69
2023-03-05T14:22:39.884Z,100511.56
2023-03-05T14:25:25.178Z,100512.47
2023-03-05T14:27:51.857Z,100504.59
2023-03-05T14:30:21.617Z,100513.38
2023-03-05T14:32:49.443Z,100508.13
2023-03-05T14:35:21.572Z,100516.03
2023-03-05T14:37:50.224Z,100511.63
2023-03-05T14:40:27.666Z,100508.19
2023-03-05T14:43:02.758Z,100516.94
2023-03-05T14:45:38.092Z,100504.69
2023-03-05T14:48:07.089Z,100502.97
2023-03-05T14:50:37.086Z,100497.72
2023-03-05T14:53:08.319Z,100501.22
2023-03-05T14:55:35.383Z,100492.44
2023-03-05T14:58:07.130Z,100487.22
2023-03-05T15:00:33.434Z,100489.88
2023-03-05T15:02:59.805Z,100493.34
2023-03-05T15:05:26.145Z,100484.63
2023-03-05T15:07:52.881Z,100478.50
2023-03-05T15:10:22.661Z,100487.25
2023-03-05T15:12:49.847Z,100481.13
2023-03-05T15:15:17.411Z,100478.50
2023-03-05T15:17:44.955Z,100475.00
2023-03-05T15:20:15.980Z,100475.00
2023-03-05T15:22:42.304Z,100469.75
2023-03-05T15:25:09.118Z,100478.50
2023-03-05T15:27:35.392Z,100474.13
2023-03-05T15:30:01.784Z,100470.63
2023-03-05T15:32:29.323Z,100467.16
2023-03-05T15:34:55.534Z,100463.66
2023-03-05T15:37:22.666Z,100464.53
2023-03-05T15:39:48.995Z,100468.03
2023-03-05T15:42:15.301Z,100462.78
2023-03-05T15:44:41.584Z,100464.53
2023-03-05T15:47:07.898Z,100461.91
2023-03-05T15:49:34.188Z,100462.78
2023-03-05T15:52:00.498Z,100456.69
2023-03-05T15:54:27.224Z,100456.69
2023-03-05T15:56:53.746Z,100454.94
2023-03-05T15:59:20.488Z,100442.72
2023-03-05T16:01:51.353Z,100438.34
2023-03-05T16:04:18.517Z,100436.59
2023-03-05T16:06:47.493Z,100438.34
2023-03-05T16:09:16.016Z,100440.97
2023-03-05T16:11:43.491Z,100443.63
2023-03-05T16:14:10.431Z,100442.75
2023-03-05T16:16:38.133Z,100445.38
2023-03-05T16:19:07.518Z,100446.25
2023-03-05T16:21:33.914Z,100447.13
2023-03-05T16:24:00.221Z,100441.88
2023-03-05T16:26:26.636Z,100437.53
2023-03-05T16:28:52.946Z,100432.31
2023-03-05T16:31:19.304Z,100437.53
2023-03-05T16:33:45.858Z,100432.31
2023-03-05T16:36:25.283Z,100430.56
2023-03-05T16:38:54.234Z,100426.19
2023-03-05T16:41:22.541Z,100439.31
2023-03-05T16:43:50.585Z,100434.06
2023-03-05T16:46:17.017Z,100440.16
2023-03-05T16:48:43.736Z,100435.81
2023-03-05T16:51:11.755Z,100444.53
2023-03-05T16:53:38.656Z,100441.91
2023-03-05T16:56:07.201Z,100446.28
2023-03-05T16:58:35.456Z,100446.25
2023-03-05T17:01:02.359Z,100444.53
2023-03-05T17:03:29.294Z,100448.00
2023-03-05T17:05:55.608Z,100450.66
2023-03-05T17:08:22.159Z,100450.63
2023-03-05T17:10:52.196Z,100461.13
2023-03-05T17:15:54.659Z,100459.38
2023-03-05T17:18:23.253Z,100455.00
2023-03-05T17:20:49.568Z,100449.75
2023-03-05T17:23:15.910Z,100450.63
2023-03-05T17:25:42.214Z,100441.03
2023-03-05T17:28:08.512Z,100442.75
2023-03-05T17:30:34.796Z,100447.13
2023-03-05T17:33:01.112Z,100446.25
2023-03-05T17:35:27.456Z,100444.47
2023-03-05T17:43:17.291Z,100442.75
2023-03-05T17:45:44.000Z,100441.84
2023-03-05T17:48:12.018Z,100445.34
2023-03-05T17:50:38.837Z,100440.09
2023-03-05T17:53:05.204Z,100440.13
2023-03-05T17:55:31.545Z,100441.84
2023-03-05T17:57:58.383Z,100440.09
2023-03-05T18:00:27.336Z,100447.03
2023-03-05T18:02:53.904Z,100442.69
2023-03-05T18:05:22.793Z,100434.84
2023-03-05T18:07:49.598Z,100431.38
2023-03-05T18:10:17.070Z,100427.84
2023-03-05T18:12:43.412Z,100430.44
2023-03-05T18:15:12.959Z,100437.44
2023-03-05T18:17:39.277Z,100437.41
2023-03-05T18:20:06.638Z,100437.38
2023-03-05T18:22:32.938Z,100437.38
2023-03-05T18:24:59.271Z,100437.34
2023-03-05T18:27:25.583Z,100435.59
2023-03-05T18:29:51.871Z,100430.34
2023-03-05T18:32:18.243Z,100421.59
2023-03-05T18:34:44.615Z,100432.03
2023-03-05T18:37:10.958Z,100430.28
2023-03-05T18:39:37.261Z,100430.22
2023-03-05T18:42:03.657Z,100426.72
2023-03-05T18:44:29.939Z,100426.72
2023-03-05T18:46:56.305Z,100426.66
2023-03-05T18:49:22.639Z,100413.56
2023-03-05T18:51:49.048Z,100417.06
2023-03-05T18:54:15.402Z,100426.63
2023-03-05T18:56:41.709Z,100430.97
2023-03-05T18:59:08.062Z,100425.72
2023-03-05T19:01:34.478Z,100418.75
2023-03-05T19:04:00.821Z,100416.97
2023-03-05T19:06:27.147Z,100416.13
2023-03-05T19:08:53.735Z,100418.75
2023-03-05T19:11:20.988Z,100410.88
2023-03-05T19:13:48.510Z,100417.94
2023-03-05T19:16:23.723Z,100417.09
2023-03-05T19:19:07.485Z,100409.25
2023-03-05T19:21:33.763Z,100406.66
2023-03-05T19:24:00.044Z,100410.13
2023-03-05T19:26:26.444Z,100411.91
2023-03-05T19:28:52.758Z,100412.78
2023-03-05T19:31:19.181Z,100414.56
2023-03-05T19:33:45.524Z,100401.47
2023-03-05T19:36:13.065Z,100400.59
2023-03-05T19:38:39.415Z,100403.22
2023-03-05T19:41:06.359Z,100405.00
2023-03-05T19:43:32.675Z,100394.53
2023-03-05T19:46:03.585Z,100392.78
2023-03-05T19:48:30.773Z,100390.19
2023-03-05T19:50:57.221Z,100388.44
2023-03-05T19:53:24.157Z,100385.81
2023-03-05T19:55:50.705Z,100384.94
2023-03-05T20:09:44.605Z,100384.88
2023-03-05T20:12:11.404Z,100383.16
2023-03-05T20:14:37.692Z,100385.75
2023-03-05T20:17:04.021Z,100381.38
2023-03-05T20:19:30.353Z,100377.91
2023-03-05T20:21:56.647Z,100370.06
2023-03-05T20:24:22.941Z,100377.91
2023-03-05T20:26:49.438Z,100367.44
2023-03-05T20:29:18.047Z,100369.19
2023-03-05T20:31:45.388Z,100367.44
2023-03-05T20:34:14.663Z,100370.06
2023-03-05T20:36:41.183Z,100367.44
2023-03-05T20:39:07.555Z,100368.31
2023-03-05T20:41:35.770Z,100366.59
2023-03-05T20:44:02.097Z,100364.84
2023-03-05T20:46:31.462Z,100371.84
2023-03-05T20:49:00.294Z,100357.00
2023-03-05T20:51:33.860Z,100358.72
